Time;durP1;ratioP1;P1;durP2;ratioP2;P2;SDS_P1;SDS_P2;PMS_P1;PMS_P2;Temp;Humidity;BMP_temperature;BMP_pressure;BME280_temperature;BME280_humidity;BME280_pressure;Samples;Min_cycle;Max_cycle;Signal;HPM_P1;HPM_P2
2023/02/05 00:00:46;;;;;;;;;;;;;;;9.57;49.07;102266.97;5082460;28;19912;-78
2023/02/05 00:03:38;;;;;;;;;;;;;;;9.61;49.43;102268.06;5074822;28;19920;-78
2023/02/05 00:06:30;;;;;;;;;;;;;;;9.65;49.62;102253.66;5090715;28;19912;-79
2023/02/05 00:09:22;;;;;;;;;;;;;;;9.58;50.14;102263.16;5081323;28;19916;-79
2023/02/05 00:12:14;;;;;;;;;;;;;;;9.76;50.92;102268.06;5085885;28;19916;-78
2023/02/05 00:15:04;;;;;;;;;;;;;;;9.55;51.10;102258.28;5090908;28;19912;-78
2023/02/05 00:17:56;;;;;;;;;;;;;;;9.69;51.69;102259.38;5082647;28;19912;-78
2023/02/05 00:20:48;;;;;;;;;;;;;;;9.93;50.57;102263.19;5084916;28;19900;-79
2023/02/05 00:23:40;;;;;;;;;;;;;;;9.70;49.14;102269.94;5091296;28;19916;-79
2023/02/05 00:26:30;;;;;;;;;;;;;;;9.81;48.26;102268.06;5078256;28;19912;-79
2023/02/05 00:29:22;;;;;;;;;;;;;;;9.56;50.60;102265.31;5090816;28;19916;-79
2023/02/05 00:32:11;;;;;;;;;;;;;;;9.33;49.50;102270.19;5104964;28;19916;-78
2023/02/05 00:35:03;;;;;;;;;;;;;;;9.62;50.54;102272.41;5087453;28;19897;-79
2023/02/05 00:37:55;;;;;;;;;;;;;;;9.63;51.00;102277.56;5089419;28;19908;-79
2023/02/05 00:40:47;;;;;;;;;;;;;;;9.72;49.94;102267.78;5078408;28;19912;-79
2023/02/05 00:43:39;;;;;;;;;;;;;;;9.91;50.41;102275.38;5089995;28;19913;-79
2023/02/05 00:46:31;;;;;;;;;;;;;;;9.96;49.78;102273.50;5086989;28;19917;-78
2023/02/05 00:49:20;;;;;;;;;;;;;;;9.89;50.79;102278.41;5088725;28;19920;-79
2023/02/05 00:52:07;;;;;;;;;;;;;;;9.77;49.10;102277.84;5087456;28;20370;-78
2023/02/05 00:54:57;;;;;;;;;;;;;;;9.86;48.60;102274.31;5091840;28;20289;-79
2023/02/05 00:57:49;;;;;;;;;;;;;;;9.70;50.60;102277.31;5080181;28;20462;-79
2023/02/05 01:00:41;;;;;;;;;;;;;;;9.42;48.96;102278.63;5085252;28;19916;-79
2023/02/05 01:03:33;;;;;;;;;;;;;;;9.50;49.57;102274.59;5082250;28;19932;-79
2023/02/05 01:06:24;;;;;;;;;;;;;;;9.44;49.18;102277.28;5088580;28;19912;-79
2023/02/05 01:09:11;;;;;;;;;;;;;;;9.27;49.21;102286.75;5089735;28;19935;-79
2023/02/05 01:12:03;;;;;;;;;;;;;;;9.33;51.16;102294.63;5090574;28;19924;-80
2023/02/05 01:14:52;;;;;;;;;;;;;;;9.05;51.08;102295.06;5082221;28;19912;-79
2023/02/05 01:17:41;;;;;;;;;;;;;;;8.83;53.16;102291.75;5084665;28;19912;-79
2023/02/05 01:20:31;;;;;;;;;;;;;;;9.08;52.38;102289.13;5091279;28;19912;-80
2023/02/05 01:23:21;;;;;;;;;;;;;;;9.12;51.82;102284.81;5092218;28;19912;-79
2023/02/05 01:26:13;;;;;;;;;;;;;;;9.31;50.83;102296.78;5091767;28;20343;-79
2023/02/05 01:29:02;;;;;;;;;;;;;;;9.28;51.65;102288.38;5083535;28;19916;-79
2023/02/05 01:31:52;;;;;;;;;;;;;;;8.84;50.25;102294.19;5094131;28;19912;-79
2023/02/05 01:34:44;;;;;;;;;;;;;;;9.23;52.59;102291.91;5087486;28;19913;-79
2023/02/05 01:37:34;;;;;;;;;;;;;;;9.38;51.00;102291.94;5085902;28;19916;-78
2023/02/05 01:40:26;;;;;;;;;;;;;;;9.34;50.54;102290.03;5090344;28;19938;-79
2023/02/05 01:43:16;;;;;;;;;;;;;;;9.20;51.76;102289.69;5086889;28;19912;-80
2023/02/05 01:46:21;;;;;;;;;;;;;;;9.30;51.76;102280.75;5091728;28;20300;-79
2023/02/05 01:49:14;;;;;;;;;;;;;;;9.43;50.39;102281.09;5087017;28;20401;-78
2023/02/05 01:52:06;;;;;;;;;;;;;;;9.53;50.17;102285.72;5089524;28;19912;-79
2023/02/05 01:54:52;;;;;;;;;;;;;;;9.41;49.88;102282.41;5090872;28;19912;-79
2023/02/05 01:57:43;;;;;;;;;;;;;;;9.29;50.11;102279.97;5087166;28;19912;-80
2023/02/05 02:00:36;;;;;;;;;;;;;;;9.47;49.99;102285.97;5089563;28;19913;-80
2023/02/05 02:03:27;;;;;;;;;;;;;;;9.37;50.08;102287.56;5088493;28;19912;-80
2023/02/05 02:06:19;;;;;;;;;;;;;;;9.04;49.74;102288.00;5085664;28;19913;-78
2023/02/05 02:09:12;;;;;;;;;;;;;;;9.01;48.63;102291.28;5089418;28;19920;-79
2023/02/05 02:12:04;;;;;;;;;;;;;;;8.96;47.98;102289.34;5083569;28;19912;-79
2023/02/05 02:14:56;;;;;;;;;;;;;;;8.82;49.96;102284.69;5077155;28;19913;-79
2023/02/05 02:17:46;;;;;;;;;;;;;;;9.11;50.66;102293.19;5081893;28;19912;-80
2023/02/05 02:20:42;;;;;;;;;;;;;;;9.13;49.57;102288.34;5083899;28;20380;-78
2023/02/05 02:23:34;;;;;;;;;;;;;;;9.22;49.69;102284.81;5087678;28;19917;-79
2023/02/05 02:26:39;;;;;;;;;;;;;;;8.98;49.81;102291.81;5088149;28;19912;-79
2023/02/05 02:29:36;;;;;;;;;;;;;;;8.82;49.39;102290.13;5083191;28;20126;-79
2023/02/05 02:32:21;;;;;;;;;;;;;;;8.81;49.08;102297.44;5087738;28;19912;-80
2023/02/05 02:35:31;;;;;;;;;;;;;;;8.93;49.94;102286.38;5084679;28;19912;-78
2023/02/05 02:38:22;;;;;;;;;;;;;;;8.71;50.59;102291.13;5091289;28;20380;-79
2023/02/05 02:41:16;;;;;;;;;;;;;;;8.87;51.18;102290.97;5087219;28;19912;-79
2023/02/05 02:44:22;;;;;;;;;;;;;;;8.96;49.99;102288.53;5084621;28;19913;-79
2023/02/05 02:47:17;;;;;;;;;;;;;;;8.77;49.91;102292.81;5085310;28;19912;-79
2023/02/05 02:50:15;;;;;;;;;;;;;;;8.90;50.36;102290.41;5080122;28;19924;-80
2023/02/05 02:53:09;;;;;;;;;;;;;;;8.64;49.38;102293.25;5086907;28;19912;-80
2023/02/05 02:56:02;;;;;;;;;;;;;;;8.80;50.70;102292.25;5078432;28;19916;-80
2023/02/05 02:59:01;;;;;;;;;;;;;;;8.95;50.92;102301.28;5086005;28;19920;-78
2023/02/05 03:01:55;;;;;;;;;;;;;;;8.75;49.25;102303.09;5088736;28;19912;-79
2023/02/05 03:04:43;;;;;;;;;;;;;;;8.67;49.60;102303.59;5086017;28;19912;-78
2023/02/05 03:07:36;;;;;;;;;;;;;;;8.87;48.26;102309.13;5088212;28;19912;-79
2023/02/05 03:10:33;;;;;;;;;;;;;;;8.77;48.43;102309.06;5090459;28;19917;-78
2023/02/05 03:13:25;;;;;;;;;;;;;;;8.61;47.45;102312.78;5081800;28;19912;-79
2023/02/05 03:16:20;;;;;;;;;;;;;;;8.26;48.28;102310.63;5083631;28;19912;-79
2023/02/05 03:19:12;;;;;;;;;;;;;;;8.40;49.77;102315.38;5081362;28;19916;-78
2023/02/05 03:22:05;;;;;;;;;;;;;;;8.67;50.25;102307.13;5091462;28;19913;-79
2023/02/05 03:24:55;;;;;;;;;;;;;;;8.44;48.92;102305.63;5077365;28;19912;-79
2023/02/05 03:27:47;;;;;;;;;;;;;;;8.43;47.57;102306.69;5080318;28;19913;-80
2023/02/05 03:30:39;;;;;;;;;;;;;;;8.53;47.59;102295.91;5087858;28;19916;-79
2023/02/05 03:33:41;;;;;;;;;;;;;;;8.56;46.73;102298.13;5079495;28;19908;-79
2023/02/05 03:36:37;;;;;;;;;;;;;;;8.61;46.98;102297.34;5087817;28;19913;-78
2023/02/05 03:39:39;;;;;;;;;;;;;;;8.63;46.39;102300.59;5080021;28;19913;-79
2023/02/05 03:42:43;;;;;;;;;;;;;;;8.63;46.58;102297.91;5085087;28;19916;-79
2023/02/05 03:45:35;;;;;;;;;;;;;;;8.48;46.61;102295.88;5087638;28;19913;-79
2023/02/05 03:48:31;;;;;;;;;;;;;;;8.40;47.14;102312.66;5086560;28;20297;-79
2023/02/05 03:51:31;;;;;;;;;;;;;;;8.34;49.53;102310.97;5071286;28;19917;-78
2023/02/05 03:54:26;;;;;;;;;;;;;;;8.46;47.24;102306.19;5084837;28;19912;-79
2023/02/05 03:57:31;;;;;;;;;;;;;;;7.99;48.07;102303.38;5076646;28;19912;-79
2023/02/05 04:00:24;;;;;;;;;;;;;;;8.07;49.04;102299.41;5085336;28;19913;-78
2023/02/05 04:03:16;;;;;;;;;;;;;;;8.19;48.73;102316.25;5083143;28;19912;-78
2023/02/05 04:06:08;;;;;;;;;;;;;;;8.37;51.07;102307.78;5079937;28;19912;-79
2023/02/05 04:09:00;;;;;;;;;;;;;;;8.36;50.83;102303.41;5091577;28;19912;-80
2023/02/05 04:11:52;;;;;;;;;;;;;;;8.46;49.98;102303.50;5089957;28;19950;-80
2023/02/05 04:14:44;;;;;;;;;;;;;;;8.40;50.74;102309.13;5089966;28;19913;-79
2023/02/05 04:17:37;;;;;;;;;;;;;;;8.49;49.88;102313.78;5091106;28;20377;-79
2023/02/05 04:20:29;;;;;;;;;;;;;;;8.28;48.19;102309.28;5086213;28;19913;-79
2023/02/05 04:23:22;;;;;;;;;;;;;;;8.40;51.68;102315.38;5093191;28;19912;-79
2023/02/05 04:26:14;;;;;;;;;;;;;;;8.33;50.54;102324.81;5089145;28;19912;-79
2023/02/05 04:29:11;;;;;;;;;;;;;;;8.52;50.48;102317.88;5087578;28;19913;-80
2023/02/05 04:32:05;;;;;;;;;;;;;;;8.07;50.30;102326.50;5087401;28;19916;-79
2023/02/05 04:34:55;;;;;;;;;;;;;;;8.12;50.59;102324.63;5092574;28;20285;-80
2023/02/05 04:37:44;;;;;;;;;;;;;;;7.96;49.95;102322.06;5084342;28;19913;-80
2023/02/05 04:40:37;;;;;;;;;;;;;;;7.90;49.49;102317.66;5082939;28;19913;-79
2023/02/05 04:43:29;;;;;;;;;;;;;;;7.68;49.83;102323.97;5091955;28;19917;-79
2023/02/05 04:46:18;;;;;;;;;;;;;;;7.61;52.55;102317.97;5089456;28;19913;-79
2023/02/05 04:49:05;;;;;;;;;;;;;;;7.66;51.80;102314.47;5086909;28;19912;-80
2023/02/05 04:51:57;;;;;;;;;;;;;;;7.89;53.52;102313.31;5091080;28;19916;-80
2023/02/05 04:54:49;;;;;;;;;;;;;;;7.91;52.50;102316.59;5081806;28;19913;-82
2023/02/05 04:57:41;;;;;;;;;;;;;;;8.01;51.60;102313.97;5087490;28;19920;-82
2023/02/05 05:00:29;;;;;;;;;;;;;;;7.86;51.89;102324.69;5085032;28;19912;-81
2023/02/05 05:03:21;;;;;;;;;;;;;;;7.82;49.85;102312.72;5079965;28;19912;-80
2023/02/05 05:06:13;;;;;;;;;;;;;;;7.80;49.37;102310.28;5089072;28;19912;-79
2023/02/05 05:09:00;;;;;;;;;;;;;;;7.99;51.18;102313.41;5088074;28;19912;-80
2023/02/05 05:11:47;;;;;;;;;;;;;;;7.91;50.09;102313.88;5081486;28;19924;-81
2023/02/05 05:14:39;;;;;;;;;;;;;;;7.93;52.07;102315.25;5086568;28;19912;-80
2023/02/05 05:17:29;;;;;;;;;;;;;;;7.92;52.30;102319.06;5076870;28;19913;-80
2023/02/05 05:20:20;;;;;;;;;;;;;;;7.96;51.86;102328.28;5079500;28;19912;-81
2023/02/05 05:23:12;;;;;;;;;;;;;;;8.02;52.66;102323.75;5078787;28;19917;-80
2023/02/05 05:26:06;;;;;;;;;;;;;;;7.91;51.07;102322.84;5085479;28;19912;-81
2023/02/05 05:28:58;;;;;;;;;;;;;;;8.12;52.38;102330.06;5078334;28;19913;-80
2023/02/05 05:31:53;;;;;;;;;;;;;;;8.05;51.56;102328.63;5079897;28;19917;-80
2023/02/05 05:34:45;;;;;;;;;;;;;;;8.12;52.44;102330.06;5068976;28;19916;-81
2023/02/05 05:37:34;;;;;;;;;;;;;;;8.15;51.44;102342.25;5085981;28;19913;-81
2023/02/05 05:43:50;;;;;;;;;;;;;;;8.04;51.16;102348.66;5085915;28;20401;-80
2023/02/05 05:46:42;;;;;;;;;;;;;;;7.95;50.91;102339.38;5073151;28;19916;-80
2023/02/05 05:49:29;;;;;;;;;;;;;;;7.93;52.29;102330.69;5084592;28;19912;-80
2023/02/05 05:52:21;;;;;;;;;;;;;;;7.69;52.01;102333.72;5088171;28;19912;-81
2023/02/05 05:55:13;;;;;;;;;;;;;;;7.76;52.54;102328.13;5080960;28;20396;-81
2023/02/05 05:58:03;;;;;;;;;;;;;;;7.60;52.46;102323.63;5081978;28;19916;-81
2023/02/05 06:00:55;;;;;;;;;;;;;;;7.73;52.23;102326.72;5078736;28;19912;-81
2023/02/05 06:03:47;;;;;;;;;;;;;;;7.71;52.62;102323.47;5087617;28;20284;-83
2023/02/05 06:06:37;;;;;;;;;;;;;;;7.66;50.55;102314.47;5076129;28;19913;-80
2023/02/05 06:09:27;;;;;;;;;;;;;;;7.69;51.97;102322.06;5087451;28;19913;-78
2023/02/05 06:12:18;;;;;;;;;;;;;;;7.65;51.75;102323.66;5072941;28;19916;-78
2023/02/05 06:15:10;;;;;;;;;;;;;;;7.85;53.26;102323.03;5086392;28;19912;-78
2023/02/05 06:18:02;;;;;;;;;;;;;;;7.43;51.72;102315.59;5097128;28;19921;-78
2023/02/05 06:20:54;;;;;;;;;;;;;;;7.32;51.09;102330.06;5080373;28;19912;-78
2023/02/05 06:23:46;;;;;;;;;;;;;;;7.08;51.72;102331.41;5082784;28;19912;-78
2023/02/05 06:26:36;;;;;;;;;;;;;;;6.91;52.19;102338.78;5086266;28;19923;-78
2023/02/05 06:29:28;;;;;;;;;;;;;;;7.06;51.87;102336.28;5093725;28;19912;-78
2023/02/05 06:32:20;;;;;;;;;;;;;;;7.14;52.14;102343.94;5089698;28;19916;-78
2023/02/05 06:35:09;;;;;;;;;;;;;;;7.15;51.71;102340.16;5086206;28;19912;-78
2023/02/05 06:38:01;;;;;;;;;;;;;;;7.11;51.29;102344.47;5085133;28;19912;-77
2023/02/05 06:40:53;;;;;;;;;;;;;;;6.91;51.60;102346.91;5089305;28;19916;-78
2023/02/05 06:43:43;;;;;;;;;;;;;;;7.16;52.42;102347.22;5079714;28;19916;-78
2023/02/05 06:46:32;;;;;;;;;;;;;;;6.75;51.72;102349.41;5088481;28;19912;-78
2023/02/05 06:49:24;;;;;;;;;;;;;;;7.14;53.88;102354.75;5083007;28;19913;-78
2023/02/05 06:52:16;;;;;;;;;;;;;;;6.37;54.09;102374.50;5083766;28;19916;-78
2023/02/05 06:55:06;;;;;;;;;;;;;;;7.07;53.89;102373.06;5087144;28;19912;-78
2023/02/05 06:57:58;;;;;;;;;;;;;;;6.41;52.32;102370.22;5089610;28;19912;-78
2023/02/05 07:00:50;;;;;;;;;;;;;;;6.92;53.87;102365.56;5088951;28;20305;-78
2023/02/05 07:03:39;;;;;;;;;;;;;;;6.94;53.94;102376.13;5072129;28;20389;-75
2023/02/05 07:06:31;;;;;;;;;;;;;;;7.06;52.06;102376.84;5067360;28;20290;-76
2023/02/05 07:09:21;;;;;;;;;;;;;;;7.07;51.02;102373.88;5073047;28;19912;-76
2023/02/05 07:12:13;;;;;;;;;;;;;;;7.17;51.99;102370.47;5071518;28;19920;-77
2023/02/05 07:15:04;;;;;;;;;;;;;;;7.22;51.29;102365.94;5070189;28;19912;-77
2023/02/05 07:17:56;;;;;;;;;;;;;;;7.26;51.15;102375.19;5066490;28;19912;-76
2023/02/05 07:20:48;;;;;;;;;;;;;;;7.19;51.29;102369.16;5061694;28;19912;-76
2023/02/05 07:23:40;;;;;;;;;;;;;;;7.42;52.41;102376.19;5063177;28;19913;-76
2023/02/05 07:26:32;;;;;;;;;;;;;;;7.51;50.75;102390.94;5070813;28;19920;-76
2023/02/05 07:29:22;;;;;;;;;;;;;;;7.46;50.87;102388.16;5069349;28;19913;-76
2023/02/05 07:32:14;;;;;;;;;;;;;;;7.53;51.01;102399.59;5075024;28;19916;-76
2023/02/05 07:35:06;;;;;;;;;;;;;;;7.50;50.39;102402.84;5068286;28;19920;-76
2023/02/05 07:37:58;;;;;;;;;;;;;;;7.59;50.56;102401.31;5070907;28;19912;-76
2023/02/05 07:40:49;;;;;;;;;;;;;;;7.72;50.71;102403.59;5060324;28;19912;-76
2023/02/05 07:43:42;;;;;;;;;;;;;;;7.71;50.92;102406.59;5067273;28;19912;-76
2023/02/05 07:46:32;;;;;;;;;;;;;;;7.78;50.89;102406.38;5077725;28;19927;-75
2023/02/05 07:49:21;;;;;;;;;;;;;;;7.77;51.13;102410.16;5072675;28;19912;-75
2023/02/05 07:52:08;;;;;;;;;;;;;;;7.92;50.69;102419.28;5074927;28;19920;-76
2023/02/05 07:55:00;;;;;;;;;;;;;;;7.84;51.38;102425.13;5066750;28;19912;-76
2023/02/05 07:57:50;;;;;;;;;;;;;;;7.82;51.92;102418.34;5071356;28;19913;-76
2023/02/05 08:00:39;;;;;;;;;;;;;;;7.85;52.36;102415.94;5055296;28;19912;-76
2023/02/05 08:03:31;;;;;;;;;;;;;;;7.81;52.26;102420.22;5072617;28;19912;-76
2023/02/05 08:06:23;;;;;;;;;;;;;;;7.54;52.42;102414.78;5075596;28;19916;-75
2023/02/05 08:09:13;;;;;;;;;;;;;;;7.74;51.60;102425.84;5071789;28;19916;-75
2023/02/05 08:12:02;;;;;;;;;;;;;;;7.59;51.83;102438.38;5066233;28;19917;-76
2023/02/05 08:14:54;;;;;;;;;;;;;;;7.78;51.53;102438.84;5069051;28;19913;-76
2023/02/05 08:17:46;;;;;;;;;;;;;;;7.92;51.33;102443.66;5066714;28;19912;-78
2023/02/05 08:20:37;;;;;;;;;;;;;;;7.89;52.15;102446.84;5070156;28;19912;-78
2023/02/05 08:23:29;;;;;;;;;;;;;;;8.02;50.91;102448.34;5078792;28;20377;-78
2023/02/05 08:26:21;;;;;;;;;;;;;;;8.00;51.46;102445.06;5088086;28;19912;-78
2023/02/05 08:29:13;;;;;;;;;;;;;;;8.20;50.67;102445.25;5081330;28;19916;-78
2023/02/05 08:32:05;;;;;;;;;;;;;;;8.03;52.17;102445.38;5077515;28;20301;-77
2023/02/05 08:34:57;;;;;;;;;;;;;;;8.00;51.55;102447.78;5071031;28;20095;-77
2023/02/05 08:37:47;;;;;;;;;;;;;;;7.79;51.75;102446.75;5070325;28;19912;-78
2023/02/05 08:40:36;;;;;;;;;;;;;;;7.89;51.70;102457.69;5069896;28;19916;-78
2023/02/05 08:43:28;;;;;;;;;;;;;;;7.88;52.02;102450.63;5061541;28;19913;-77
2023/02/05 08:46:23;;;;;;;;;;;;;;;7.90;51.93;102445.78;5074055;28;20293;-77
2023/02/05 08:49:15;;;;;;;;;;;;;;;7.72;52.80;102441.50;5063836;28;19912;-77
2023/02/05 08:52:05;;;;;;;;;;;;;;;7.79;52.54;102451.34;5072937;28;19917;-77
2023/02/05 08:54:57;;;;;;;;;;;;;;;7.96;51.84;102458.31;5074260;28;19912;-77
2023/02/05 08:57:46;;;;;;;;;;;;;;;7.97;51.47;102451.00;5063272;28;20269;-78
2023/02/05 09:00:38;;;;;;;;;;;;;;;7.67;50.87;102441.44;5070697;28;19912;-77
2023/02/05 09:03:29;;;;;;;;;;;;;;;7.89;52.20;102451.44;5073241;28;20397;-76
2023/02/05 09:06:18;;;;;;;;;;;;;;;7.72;50.88;102460.47;5074248;28;19913;-76
2023/02/05 09:09:08;;;;;;;;;;;;;;;7.73;50.29;102458.56;5066200;28;20304;-76
2023/02/05 09:12:00;;;;;;;;;;;;;;;7.74;49.87;102462.94;5077963;28;19917;-76
2023/02/05 09:14:52;;;;;;;;;;;;;;;7.81;49.27;102462.75;5064248;28;19912;-76
2023/02/05 09:17:44;;;;;;;;;;;;;;;7.71;49.97;102458.84;5066011;28;19916;-76
2023/02/05 09:20:33;;;;;;;;;;;;;;;7.82;49.25;102453.56;5076289;28;19916;-76
2023/02/05 09:23:23;;;;;;;;;;;;;;;7.61;49.90;102457.91;5073786;28;19912;-76
2023/02/05 09:26:14;;;;;;;;;;;;;;;7.59;49.51;102460.84;5073521;28;20216;-77
2023/02/05 09:29:04;;;;;;;;;;;;;;;7.48;48.60;102458.28;5077735;28;19912;-76
2023/02/05 09:31:56;;;;;;;;;;;;;;;7.67;49.13;102462.28;5075811;28;19920;-77
2023/02/05 09:34:48;;;;;;;;;;;;;;;7.72;49.63;102465.06;5069574;28;20401;-77
2023/02/05 09:37:38;;;;;;;;;;;;;;;7.84;49.32;102460.34;5063485;28;19912;-77
2023/02/05 09:40:30;;;;;;;;;;;;;;;7.69;48.43;102468.28;5068630;28;19913;-76
2023/02/05 09:43:38;;;;;;;;;;;;;;;7.77;48.60;102472.44;5071461;28;19912;-77
2023/02/05 09:46:30;;;;;;;;;;;;;;;7.79;48.45;102479.22;5072932;28;20308;-76
2023/02/05 09:49:31;;;;;;;;;;;;;;;7.75;48.60;102478.09;5070491;28;19912;-77
2023/02/05 09:52:26;;;;;;;;;;;;;;;7.79;48.15;102483.81;5072699;28;19916;-76
2023/02/05 09:55:24;;;;;;;;;;;;;;;7.76;49.26;102484.34;5070726;28;19912;-77
2023/02/05 09:58:27;;;;;;;;;;;;;;;7.81;48.44;102484.41;5072955;28;19916;-77
2023/02/05 10:01:33;;;;;;;;;;;;;;;7.98;48.44;102480.53;5069254;28;19917;-77
2023/02/05 10:04:26;;;;;;;;;;;;;;;7.85;49.29;102472.00;5068449;28;19912;-76
2023/02/05 10:07:21;;;;;;;;;;;;;;;7.90;50.44;102481.00;5067368;28;19917;-77
2023/02/05 10:10:19;;;;;;;;;;;;;;;8.05;48.33;102481.16;5063089;28;19913;-76
2023/02/05 10:13:27;;;;;;;;;;;;;;;8.02;47.56;102473.56;5063965;28;19913;-77
2023/02/05 10:16:29;;;;;;;;;;;;;;;8.06;47.67;102476.56;5061720;28;19927;-76
2023/02/05 10:19:37;;;;;;;;;;;;;;;7.92;48.39;102481.56;5059508;28;19913;-77
2023/02/05 10:22:29;;;;;;;;;;;;;;;8.04;48.49;102484.94;5064414;28;19912;-76
2023/02/05 10:25:31;;;;;;;;;;;;;;;8.07;47.49;102480.91;5062617;28;20289;-79
2023/02/05 10:28:40;;;;;;;;;;;;;;;8.14;47.23;102478.81;5060498;28;20370;-77
2023/02/05 10:31:51;;;;;;;;;;;;;;;8.13;47.57;102479.88;5063046;28;19916;-75
2023/02/05 10:35:02;;;;;;;;;;;;;;;8.07;47.80;102480.91;5060073;28;19913;-75
2023/02/05 10:37:54;;;;;;;;;;;;;;;8.06;48.44;102484.69;5064989;28;20569;-76
2023/02/05 10:40:45;;;;;;;;;;;;;;;8.14;47.25;102485.03;5062278;28;20394;-76
2023/02/05 10:43:40;;;;;;;;;;;;;;;8.88;49.85;102489.81;5067038;28;19916;-76
2023/02/05 10:46:34;;;;;;;;;;;;;;;8.78;46.52;102484.31;5059781;28;19920;-76
2023/02/05 10:49:23;;;;;;;;;;;;;;;8.74;46.43;102483.97;5054318;28;19912;-76
2023/02/05 10:52:16;;;;;;;;;;;;;;;8.89;47.08;102469.72;5065626;28;19916;-76
2023/02/05 10:55:11;;;;;;;;;;;;;;;8.93;45.97;102465.41;5064516;28;20300;-77
2023/02/05 10:58:09;;;;;;;;;;;;;;;9.23;45.52;102459.34;5068811;28;19916;-78
2023/02/05 11:01:01;;;;;;;;;;;;;;;9.20;47.28;102443.59;5064416;28;19912;-77
2023/02/05 11:03:57;;;;;;;;;;;;;;;8.92;46.65;102448.31;5063200;28;19912;-76
2023/02/05 11:06:51;;;;;;;;;;;;;;;9.10;46.12;102438.09;5065057;28;20003;-76
2023/02/05 11:09:38;;;;;;;;;;;;;;;9.33;46.74;102449.38;5074910;28;19912;-77
2023/02/05 11:12:31;;;;;;;;;;;;;;;9.34;47.79;102442.06;5074598;28;19917;-77
2023/02/05 11:15:24;;;;;;;;;;;;;;;9.64;48.23;102438.63;5077016;28;19912;-77
2023/02/05 11:18:22;;;;;;;;;;;;;;;8.97;46.98;102439.41;5078257;28;19912;-77
2023/02/05 11:21:15;;;;;;;;;;;;;;;9.14;49.62;102434.63;5083157;28;19916;-77
2023/02/05 11:24:04;;;;;;;;;;;;;;;9.11;47.53;102428.88;5080699;28;19912;-78
2023/02/05 11:27:13;;;;;;;;;;;;;;;9.71;49.26;102417.44;5087025;28;19913;-77
2023/02/05 11:30:15;;;;;;;;;;;;;;;9.38;47.61;102424.97;5071884;28;19912;-77
2023/02/05 11:33:19;;;;;;;;;;;;;;;9.13;47.17;102426.75;5076159;28;20524;-77
2023/02/05 11:36:16;;;;;;;;;;;;;;;9.11;46.72;102424.28;5086900;28;20384;-78
2023/02/05 11:39:08;;;;;;;;;;;;;;;8.81;47.05;102415.97;5079818;28;19912;-78
2023/02/05 11:42:08;;;;;;;;;;;;;;;9.11;47.46;102402.56;5074597;28;20297;-78
2023/02/05 11:44:59;;;;;;;;;;;;;;;9.02;47.02;102407.69;5078276;28;19912;-77
2023/02/05 11:47:47;;;;;;;;;;;;;;;8.97;48.18;102401.41;5071968;28;19913;-77
2023/02/05 11:50:36;;;;;;;;;;;;;;;8.86;47.37;102394.28;5075046;28;19912;-76
2023/02/05 11:53:26;;;;;;;;;;;;;;;8.88;47.46;102397.56;5072016;28;19913;-76
2023/02/05 12:03:17;;;;;;;;;;;;;;;8.76;48.31;102380.66;5033813;28;19917;-82
2023/02/05 12:06:17;;;;;;;;;;;;;;;8.87;48.99;102377.75;5038095;28;19938;-79
2023/02/05 12:09:07;;;;;;;;;;;;;;;8.88;47.15;102354.16;5053964;28;19913;-79
2023/02/05 12:12:05;;;;;;;;;;;;;;;8.70;47.81;102362.72;5040302;28;19917;-80
2023/02/05 12:15:12;;;;;;;;;;;;;;;8.68;47.69;102368.44;5040289;28;19940;-80
2023/02/05 12:17:59;;;;;;;;;;;;;;;8.86;48.47;102345.47;5039201;28;19912;-79
2023/02/05 12:21:00;;;;;;;;;;;;;;;8.80;48.82;102344.63;5034874;28;19916;-79
2023/02/05 12:24:01;;;;;;;;;;;;;;;8.87;47.91;102341.69;5039299;28;19917;-79
2023/02/05 12:26:52;;;;;;;;;;;;;;;8.89;48.67;102337.59;5037372;28;19913;-78
2023/02/05 12:29:54;;;;;;;;;;;;;;;8.84;47.08;102332.16;5033947;28;20292;-79
2023/02/05 12:33:00;;;;;;;;;;;;;;;8.77;48.15;102319.94;5040984;28;19917;-78
2023/02/05 12:36:04;;;;;;;;;;;;;;;8.88;47.81;102327.03;5042810;28;20152;-78
2023/02/05 12:39:07;;;;;;;;;;;;;;;8.91;49.45;102326.50;5043443;28;19913;-79
2023/02/05 12:42:12;;;;;;;;;;;;;;;9.00;47.65;102323.00;5039125;28;19913;-79
2023/02/05 12:45:21;;;;;;;;;;;;;;;8.87;47.42;102328.13;5039618;28;19913;-81
2023/02/05 12:48:18;;;;;;;;;;;;;;;8.87;48.78;102325.41;5025460;28;19913;-79
2023/02/05 12:51:12;;;;;;;;;;;;;;;8.71;48.41;102327.22;5043578;28;19917;-79
2023/02/05 12:54:16;;;;;;;;;;;;;;;8.84;47.67;102325.91;5040304;28;19913;-78
2023/02/05 12:57:10;;;;;;;;;;;;;;;8.72;47.79;102317.19;5038886;28;19912;-78
2023/02/05 13:00:12;;;;;;;;;;;;;;;8.69;48.18;102307.66;5033603;28;19913;-79
2023/02/05 13:03:08;;;;;;;;;;;;;;;8.64;48.36;102293.25;5032779;28;19913;-78
2023/02/05 13:05:58;;;;;;;;;;;;;;;8.68;48.48;102302.53;5033191;28;19913;-79
2023/02/05 13:08:52;;;;;;;;;;;;;;;8.70;48.91;102298.47;5051355;28;19912;-78
2023/02/05 13:11:48;;;;;;;;;;;;;;;8.52;48.34;102307.88;5044663;28;19917;-77
2023/02/05 13:14:42;;;;;;;;;;;;;;;8.42;48.02;102313.22;5041566;28;19920;-78
2023/02/05 13:17:31;;;;;;;;;;;;;;;8.42;48.08;102310.53;5042523;28;19917;-79
2023/02/05 13:28:38;;;;;;;;;;;;;;;8.57;47.70;102305.19;5041606;28;19913;-78
2023/02/05 13:29:52;;;;;;;;;;;;;;;8.63;48.97;102288.94;5051849;28;19920;-77
2023/02/05 13:32:45;;;;;;;;;;;;;;;8.43;49.44;102282.31;5039209;28;19917;-77
2023/02/05 13:35:54;;;;;;;;;;;;;;;8.35;49.55;102301.78;5045821;28;20138;-79
2023/02/05 13:38:44;;;;;;;;;;;;;;;8.46;48.88;102305.38;5024599;28;19913;-80
2023/02/05 13:41:40;;;;;;;;;;;;;;;8.35;50.02;102298.25;5043099;28;19913;-79
2023/02/05 13:44:47;;;;;;;;;;;;;;;8.49;49.66;102281.25;5050380;28;19913;-79
2023/02/05 13:47:42;;;;;;;;;;;;;;;8.40;49.78;102285.56;5035254;28;19913;-79
2023/02/05 13:50:48;;;;;;;;;;;;;;;8.49;49.38;102281.25;5023627;28;20296;-79
2023/02/05 13:53:50;;;;;;;;;;;;;;;8.46;49.40;102286.41;5040567;28;19925;-81
2023/02/05 13:56:46;;;;;;;;;;;;;;;8.48;49.53;102281.53;5040163;28;19913;-79
2023/02/05 13:59:50;;;;;;;;;;;;;;;8.51;51.66;102295.38;5035962;28;19917;-79
2023/02/05 14:02:47;;;;;;;;;;;;;;;8.49;49.13;102300.25;5039852;28;19913;-79
2023/02/05 14:05:39;;;;;;;;;;;;;;;8.36;49.80;102302.59;5044470;28;19913;-79
2023/02/05 14:08:32;;;;;;;;;;;;;;;8.80;49.83;102294.97;5043390;28;19913;-83
2023/02/05 14:11:22;;;;;;;;;;;;;;;8.65;49.52;102287.59;5043396;28;19917;-79
2023/02/05 14:14:22;;;;;;;;;;;;;;;8.43;49.93;102282.31;5045195;28;19916;-82
2023/02/05 14:17:33;;;;;;;;;;;;;;;8.34;51.11;102266.81;5043187;28;19913;-82
2023/02/05 14:20:27;;;;;;;;;;;;;;;8.41;49.96;102270.94;5040334;28;19920;-81
2023/02/05 14:23:33;;;;;;;;;;;;;;;8.35;51.34;102274.69;5041273;28;19913;-83
2023/02/05 14:26:42;;;;;;;;;;;;;;;8.51;51.74;102281.81;5036040;28;19913;-82
2023/02/05 14:29:41;;;;;;;;;;;;;;;8.41;50.89;102286.38;5047622;28;19912;-81
2023/02/05 14:32:34;;;;;;;;;;;;;;;8.38;50.84;102284.19;5042321;28;19920;-81
2023/02/05 14:35:41;;;;;;;;;;;;;;;8.43;51.78;102282.31;5029699;28;19940;-82
2023/02/05 14:38:37;;;;;;;;;;;;;;;8.41;51.29;102284.47;5035287;28;19921;-81
2023/02/05 14:41:27;;;;;;;;;;;;;;;8.35;51.70;102285.53;5042661;28;19913;-83
2023/02/05 14:44:37;;;;;;;;;;;;;;;8.36;52.36;102300.72;5044657;28;19913;-82
2023/02/05 14:47:35;;;;;;;;;;;;;;;8.15;53.49;102304.31;5041633;28;20389;-83
2023/02/05 14:50:28;;;;;;;;;;;;;;;8.09;52.90;102298.03;5033529;28;19914;-83
2023/02/05 14:53:25;;;;;;;;;;;;;;;8.14;52.84;102289.13;5029501;28;19917;-83
2023/02/05 14:56:24;;;;;;;;;;;;;;;7.95;55.06;102296.03;5021473;28;19913;-83
2023/02/05 14:59:28;;;;;;;;;;;;;;;7.90;54.91;102296.00;5041321;28;19913;-84
2023/02/05 15:02:33;;;;;;;;;;;;;;;7.77;54.92;102310.81;5045412;28;20301;-82
2023/02/05 15:05:23;;;;;;;;;;;;;;;8.00;55.28;102309.63;5037388;28;20421;-83
2023/02/05 15:08:31;;;;;;;;;;;;;;;7.89;55.53;102314.13;5034315;28;19913;-82
2023/02/05 15:11:47;;;;;;;;;;;;;;;8.01;54.52;102308.56;5045411;28;20305;-83
2023/02/05 15:14:56;;;;;;;;;;;;;;;7.96;54.29;102305.81;5044309;28;20305;-83
2023/02/05 15:17:52;;;;;;;;;;;;;;;8.02;53.09;102305.59;5039565;28;19913;-82
2023/02/05 15:20:47;;;;;;;;;;;;;;;8.14;53.02;102310.81;5041368;28;19916;-82
2023/02/05 15:23:41;;;;;;;;;;;;;;;7.93;54.06;102303.59;5047280;28;19916;-82